Time;durP1;ratioP1;P1;durP2;ratioP2;P2;SDS_P1;SDS_P2;PMS_P1;PMS_P2;Temp;Humidity;BMP_temperature;BMP_pressure;BME280_temperature;BME280_humidity;BME280_pressure;Samples;Min_cycle;Max_cycle;Signal;HPM_P1;HPM_P2
2021/09/07 00:01:03;;;;;;;58.77;3.03;;;14.70;1.00;;;;;;5068870;28;20535;-70
2021/09/07 00:03:30;;;;;;;58.47;3.00;;;14.70;1.00;;;;;;5054752;28;20482;-70
2021/09/07 00:05:57;;;;;;;59.60;3.50;;;14.70;1.00;;;;;;5055063;28;20471;-70
2021/09/07 00:08:25;;;;;;;58.83;3.33;;;14.60;1.00;;;;;;5054964;28;20887;-70
2021/09/07 00:10:52;;;;;;;59.03;3.20;;;14.60;1.00;;;;;;5054624;28;20531;-70
2021/09/07 00:13:19;;;;;;;59.90;3.50;;;14.50;1.00;;;;;;5054823;28;20867;-70
2021/09/07 00:15:46;;;;;;;58.57;3.00;;;14.50;1.00;;;;;;5054891;28;20820;-70
2021/09/07 00:18:13;;;;;;;60.60;4.63;;;14.50;1.00;;;;;;5054547;28;20448;-70
2021/09/07 00:20:40;;;;;;;60.53;4.23;;;14.40;1.00;;;;;;5054672;28;20441;-70
2021/09/07 00:23:07;;;;;;;58.90;3.53;;;14.30;1.00;;;;;;5054673;28;20551;-70
2021/09/07 00:25:35;;;;;;;59.80;4.20;;;14.30;1.00;;;;;;5054729;28;20900;-70
2021/09/07 00:28:02;;;;;;;59.40;3.87;;;14.30;1.00;;;;;;5054144;28;20916;-70
2021/09/07 00:30:30;;;;;;;58.47;2.80;;;14.20;1.00;;;;;;5054075;28;20540;-70
2021/09/07 00:32:56;;;;;;;59.50;3.33;;;14.20;1.00;;;;;;5052006;28;20492;-70
2021/09/07 00:35:24;;;;;;;58.67;3.43;;;14.20;1.00;;;;;;5054513;28;20890;-70
2021/09/07 00:37:51;;;;;;;59.40;3.83;;;14.20;1.00;;;;;;5054182;28;20542;-70
2021/09/07 00:40:18;;;;;;;59.93;4.70;;;14.10;1.00;;;;;;5054127;28;20451;-70
2021/09/07 00:42:46;;;;;;;58.47;2.90;;;14.10;1.00;;;;;;5054255;28;20468;-70
2021/09/07 00:45:13;;;;;;;59.20;3.37;;;14.00;1.00;;;;;;5054046;28;20547;-70
2021/09/07 00:47:41;;;;;;;58.60;3.00;;;14.00;1.00;;;;;;5054471;28;20451;-70
2021/09/07 00:50:08;;;;;;;58.80;3.10;;;14.10;1.00;;;;;;5053905;28;20448;-70
2021/09/07 00:52:36;;;;;;;59.50;4.00;;;14.10;1.00;;;;;;5053727;28;20483;-70
2021/09/07 00:55:04;;;;;;;59.20;3.27;;;14.00;1.00;;;;;;5054012;28;20455;-70
2021/09/07 00:57:33;;;;;;;58.80;3.00;;;13.90;1.00;;;;;;5054480;28;20635;-70
2021/09/07 01:00:03;;;;;;;59.10;3.27;;;13.90;1.00;;;;;;5053414;28;20451;-70
2021/09/07 01:02:30;;;;;;;58.37;2.67;;;13.80;1.00;;;;;;5053807;28;20981;-70
2021/09/07 01:04:57;;;;;;;58.43;3.00;;;13.80;1.00;;;;;;5052245;28;20487;-70
2021/09/07 01:07:24;;;;;;;58.40;3.10;;;13.70;1.00;;;;;;5054102;28;20444;-70
2021/09/07 01:09:51;;;;;;;59.20;3.43;;;13.70;1.00;;;;;;5053576;28;20793;-70
2021/09/07 01:12:18;;;;;;;58.57;2.80;;;13.60;1.00;;;;;;5053536;28;20448;-70
2021/09/07 01:14:45;;;;;;;58.50;2.70;;;13.60;1.00;;;;;;5061637;28;20966;-70
2021/09/07 01:17:15;;;;;;;58.57;2.80;;;13.50;1.00;;;;;;5073709;28;20453;-70
2021/09/07 01:19:45;;;;;;;58.27;2.70;;;13.60;1.00;;;;;;5073218;28;21034;-70
2021/09/07 01:22:13;;;;;;;58.47;3.00;;;13.50;1.00;;;;;;5073546;28;20911;-70
2021/09/07 01:24:41;;;;;;;60.90;3.63;;;13.50;1.00;;;;;;5073555;28;20963;-70
2021/09/07 01:27:08;;;;;;;58.80;3.40;;;13.50;1.00;;;;;;5073546;28;20453;-70
2021/09/07 01:29:36;;;;;;;58.47;2.90;;;13.50;1.00;;;;;;5073203;28;20478;-70
2021/09/07 01:32:05;;;;;;;58.90;3.10;;;13.50;1.00;;;;;;5073455;28;20455;-70
2021/09/07 01:34:32;;;;;;;59.73;3.80;;;13.50;1.00;;;;;;5073152;28;20495;-70
2021/09/07 01:36:59;;;;;;;58.80;3.67;;;13.50;1.00;;;;;;5071404;28;20475;-70
2021/09/07 01:39:27;;;;;;;58.60;3.07;;;13.50;1.00;;;;;;5072725;28;20758;-70
2021/09/07 01:41:56;;;;;;;58.50;3.20;;;13.50;1.00;;;;;;5073486;28;20447;-70
2021/09/07 01:44:23;;;;;;;58.73;3.40;;;13.60;1.00;;;;;;5070310;28;20562;-70
2021/09/07 01:46:51;;;;;;;58.70;3.33;;;13.60;1.00;;;;;;5073101;28;20451;-70
2021/09/07 01:49:18;;;;;;;58.47;2.70;;;13.60;1.00;;;;;;5073109;28;20474;-70
2021/09/07 01:51:46;;;;;;;59.60;3.20;;;13.60;1.00;;;;;;5073240;28;20839;-70
2021/09/07 01:54:14;;;;;;;59.87;3.20;;;13.60;1.00;;;;;;5072943;28;21082;-70
2021/09/07 01:56:42;;;;;;;58.37;2.73;;;13.60;1.00;;;;;;5072972;28;20451;-70
2021/09/07 01:59:10;;;;;;;58.43;3.00;;;13.60;1.00;;;;;;5072600;28;20538;-70
2021/09/07 02:01:38;;;;;;;58.83;3.17;;;13.50;1.00;;;;;;5072670;28;20792;-70
2021/09/07 02:04:05;;;;;;;59.93;3.90;;;13.50;1.00;;;;;;5072545;28;21150;-70
2021/09/07 02:06:32;;;;;;;58.50;3.20;;;13.50;1.00;;;;;;5072656;28;20530;-70
2021/09/07 02:08:59;;;;;;;58.73;3.60;;;13.40;1.00;;;;;;5070246;28;20530;-70
2021/09/07 02:11:26;;;;;;;59.80;3.70;;;13.40;1.00;;;;;;5052215;28;21019;-70
2021/09/07 02:13:53;;;;;;;58.63;3.40;;;13.30;1.00;;;;;;5052363;28;20486;-70
2021/09/07 02:16:21;;;;;;;58.47;2.90;;;13.30;1.00;;;;;;5052671;28;20440;-70
2021/09/07 02:18:48;;;;;;;58.90;3.30;;;13.20;1.00;;;;;;5052319;28;20491;-70
2021/09/07 02:21:14;;;;;;;60.73;4.50;;;13.20;1.00;;;;;;5052296;28;20476;-70
2021/09/07 02:23:41;;;;;;;58.67;2.80;;;13.20;1.00;;;;;;5052729;28;20906;-70
2021/09/07 02:26:08;;;;;;;58.90;4.10;;;13.20;1.00;;;;;;5052332;28;20454;-70
2021/09/07 02:28:35;;;;;;;58.53;3.17;;;13.10;1.00;;;;;;5052160;28;20448;-70
2021/09/07 02:31:02;;;;;;;58.33;2.67;;;13.10;1.00;;;;;;5052262;28;20958;-70
2021/09/07 02:33:30;;;;;;;60.27;3.30;;;13.10;1.00;;;;;;5052283;28;20562;-70
2021/09/07 02:35:57;;;;;;;58.57;3.03;;;13.10;1.00;;;;;;5052309;28;20451;-70
2021/09/07 02:38:24;;;;;;;58.27;3.10;;;13.10;1.00;;;;;;5052194;28;20487;-70
2021/09/07 02:40:50;;;;;;;59.47;3.10;;;13.10;1.00;;;;;;5050759;28;20455;-70
2021/09/07 02:43:17;;;;;;;60.03;4.83;;;13.20;1.00;;;;;;5051855;28;20551;-70
2021/09/07 02:45:44;;;;;;;58.57;3.13;;;13.10;1.00;;;;;;5052213;28;20883;-70
2021/09/07 02:48:11;;;;;;;58.37;3.10;;;13.10;1.00;;;;;;5052072;28;20470;-70
2021/09/07 02:50:39;;;;;;;58.17;2.73;;;13.10;1.00;;;;;;5051814;28;20542;-70
2021/09/07 02:53:06;;;;;;;58.47;2.90;;;13.10;1.00;;;;;;5051856;28;20503;-70
2021/09/07 02:55:33;;;;;;;58.60;3.50;;;13.10;1.00;;;;;;5051626;28;20471;-70
2021/09/07 02:58:00;;;;;;;59.23;4.10;;;13.00;1.00;;;;;;5051276;28;20934;-70
2021/09/07 03:00:27;;;;;;;58.77;3.20;;;13.00;1.00;;;;;;5051724;28;20531;-70
2021/09/07 03:02:54;;;;;;;58.77;3.20;;;12.90;1.00;;;;;;5051584;28;20479;-70
2021/09/07 03:05:21;;;;;;;58.67;3.30;;;12.90;1.00;;;;;;5051808;28;20470;-70
2021/09/07 03:07:49;;;;;;;58.70;3.10;;;12.90;1.00;;;;;;5051697;28;20882;-70
2021/09/07 03:10:16;;;;;;;58.67;2.87;;;12.80;1.00;;;;;;5051445;28;20448;-70
2021/09/07 03:12:43;;;;;;;58.37;2.80;;;12.80;1.00;;;;;;5052555;28;20832;-71
2021/09/07 03:15:11;;;;;;;58.47;2.80;;;12.70;1.00;;;;;;5071638;28;20669;-70
2021/09/07 03:17:38;;;;;;;58.40;3.03;;;12.70;1.00;;;;;;5071490;28;20474;-70
2021/09/07 03:20:06;;;;;;;58.33;3.00;;;12.60;1.00;;;;;;5071266;28;20501;-70
2021/09/07 03:22:33;;;;;;;58.67;3.53;;;12.50;1.00;;;;;;5071534;28;20546;-70
2021/09/07 03:25:01;;;;;;;58.77;3.10;;;12.50;1.00;;;;;;5071840;28;20447;-70
2021/09/07 03:27:28;;;;;;;58.57;2.90;;;12.50;1.00;;;;;;5071702;28;20439;-70
2021/09/07 03:29:54;;;;;;;58.37;3.20;;;12.50;1.00;;;;;;5071221;28;20453;-70
2021/09/07 03:32:21;;;;;;;58.47;2.60;;;12.40;1.00;;;;;;5071556;28;20451;-70
2021/09/07 03:34:48;;;;;;;59.67;3.20;;;12.50;1.00;;;;;;5071429;28;20857;-70
2021/09/07 03:37:15;;;;;;;58.57;3.27;;;12.50;1.00;;;;;;5071259;28;20483;-70
2021/09/07 03:39:42;;;;;;;59.07;3.10;;;12.40;1.00;;;;;;5071038;28;20825;-70
2021/09/07 03:42:10;;;;;;;58.43;2.90;;;12.40;1.00;;;;;;5071544;28;20439;-70
2021/09/07 03:44:37;;;;;;;58.67;2.90;;;12.40;1.00;;;;;;5070143;28;20447;-70
2021/09/07 03:47:04;;;;;;;58.90;2.90;;;12.40;1.00;;;;;;5071133;28;20479;-70
2021/09/07 03:49:31;;;;;;;60.50;4.00;;;12.40;1.00;;;;;;5071111;28;20457;-70
2021/09/07 03:51:58;;;;;;;58.37;2.70;;;12.40;1.00;;;;;;5071214;28;20446;-70
2021/09/07 03:54:25;;;;;;;58.63;3.33;;;12.40;1.00;;;;;;5071449;28;20597;-70
2021/09/07 03:56:52;;;;;;;58.70;3.00;;;12.30;1.00;;;;;;5071166;28;20450;-70
2021/09/07 03:59:20;;;;;;;58.67;3.07;;;12.30;1.00;;;;;;5071350;28;20541;-70
2021/09/07 04:01:47;;;;;;;58.37;2.90;;;12.30;1.00;;;;;;5071373;28;20833;-70
2021/09/07 04:04:13;;;;;;;59.37;4.47;;;12.30;1.00;;;;;;5071133;28;20492;-70
2021/09/07 04:06:40;;;;;;;58.43;2.90;;;12.30;1.00;;;;;;5071143;28;20454;-70
2021/09/07 04:09:07;;;;;;;58.43;2.77;;;12.30;1.00;;;;;;5074592;28;20490;-70
2021/09/07 04:11:34;;;;;;;58.80;3.20;;;12.30;1.00;;;;;;5075129;28;20959;-70
2021/09/07 04:14:01;;;;;;;58.70;3.10;;;12.30;1.00;;;;;;5074840;28;21094;-71
2021/09/07 04:16:29;;;;;;;58.97;3.60;;;12.30;1.00;;;;;;5074817;28;20534;-70
2021/09/07 04:18:56;;;;;;;58.47;2.93;;;12.30;1.00;;;;;;5074628;28;20451;-70
2021/09/07 04:21:23;;;;;;;59.47;4.30;;;12.30;1.00;;;;;;5074914;28;20443;-71
2021/09/07 04:23:50;;;;;;;58.80;3.20;;;12.30;1.00;;;;;;5074731;28;21002;-71
2021/09/07 04:26:16;;;;;;;58.60;3.20;;;12.20;1.00;;;;;;5074802;28;20454;-71
2021/09/07 04:28:43;;;;;;;58.90;3.33;;;12.20;1.00;;;;;;5074985;28;20443;-70
2021/09/07 04:31:10;;;;;;;58.43;2.60;;;12.20;1.00;;;;;;5074265;28;20457;-70
2021/09/07 04:33:38;;;;;;;58.60;3.00;;;12.30;1.00;;;;;;5074350;28;20915;-70
2021/09/07 04:36:05;;;;;;;58.90;3.77;;;12.20;1.00;;;;;;5074409;28;20985;-70
2021/09/07 04:38:32;;;;;;;58.60;2.90;;;12.20;1.00;;;;;;5074687;28;20941;-70
2021/09/07 04:40:59;;;;;;;59.13;3.77;;;12.20;1.00;;;;;;5074302;28;20553;-70
2021/09/07 04:43:26;;;;;;;58.37;3.00;;;12.20;1.00;;;;;;5074356;28;20553;-70
2021/09/07 04:45:53;;;;;;;58.47;2.93;;;12.20;1.00;;;;;;5074207;28;20537;-70
2021/09/07 04:48:19;;;;;;;58.53;2.80;;;12.20;1.00;;;;;;5074155;28;20902;-70
2021/09/07 04:50:48;;;;;;;58.67;3.10;;;12.20;1.00;;;;;;5074167;28;20876;-70
2021/09/07 04:53:15;;;;;;;58.90;3.60;;;12.10;1.00;;;;;;5074486;28;20895;-70
2021/09/07 04:55:42;;;;;;;58.70;3.63;;;12.10;1.00;;;;;;5074317;28;20471;-70
2021/09/07 04:58:08;;;;;;;60.70;3.40;;;12.10;1.00;;;;;;5074071;28;20481;-71
2021/09/07 05:00:35;;;;;;;58.47;2.90;;;12.10;1.00;;;;;;5073791;28;21207;-71
2021/09/07 05:03:03;;;;;;;59.03;3.07;;;12.10;1.00;;;;;;5074244;28;20565;-71
2021/09/07 05:05:30;;;;;;;58.27;2.73;;;12.20;1.00;;;;;;5074160;28;20530;-69
2021/09/07 05:07:58;;;;;;;58.77;3.30;;;12.20;1.00;;;;;;5073976;28;20819;-71
2021/09/07 05:10:25;;;;;;;58.47;3.00;;;12.20;1.00;;;;;;5073768;28;20459;-70
2021/09/07 05:12:52;;;;;;;58.37;3.10;;;12.30;1.00;;;;;;5073817;28;20566;-70
2021/09/07 05:15:19;;;;;;;58.33;3.23;;;12.30;1.00;;;;;;5073556;28;20479;-70
2021/09/07 05:17:46;;;;;;;58.57;3.47;;;12.30;1.00;;;;;;5073673;28;20542;-70
2021/09/07 05:20:13;;;;;;;58.53;3.00;;;12.40;1.00;;;;;;5072942;28;20486;-70
2021/09/07 05:22:40;;;;;;;58.47;2.90;;;12.40;1.00;;;;;;5073642;28;20510;-70
2021/09/07 05:25:09;;;;;;;58.33;2.83;;;12.50;1.00;;;;;;5073555;28;20999;-70
2021/09/07 05:27:37;;;;;;;58.27;2.60;;;12.50;1.00;;;;;;5073529;28;20474;-70
2021/09/07 05:30:04;;;;;;;58.50;2.90;;;12.60;1.00;;;;;;5073349;28;20545;-70
2021/09/07 05:32:31;;;;;;;59.20;3.30;;;12.70;1.00;;;;;;5073284;28;20477;-70
2021/09/07 05:34:58;;;;;;;58.30;2.73;;;12.70;1.00;;;;;;5073384;28;20518;-70
2021/09/07 05:37:25;;;;;;;59.93;3.57;;;12.70;1.00;;;;;;5073361;28;20896;-70
2021/09/07 05:39:52;;;;;;;58.43;2.80;;;12.80;1.00;;;;;;5073114;28;20522;-70
2021/09/07 05:42:20;;;;;;;58.90;2.93;;;12.90;1.00;;;;;;5072940;28;20536;-70
2021/09/07 05:44:47;;;;;;;60.27;2.90;;;12.90;1.00;;;;;;5072974;28;20447;-70
2021/09/07 05:47:13;;;;;;;58.40;2.80;;;13.00;1.00;;;;;;5073087;28;20522;-70
2021/09/07 05:49:40;;;;;;;58.40;3.30;;;13.00;1.00;;;;;;5072231;28;20443;-70
2021/09/07 05:52:07;;;;;;;58.33;2.80;;;13.00;1.00;;;;;;5073027;28;20496;-70
2021/09/07 05:54:34;;;;;;;57.93;2.90;;;13.10;1.00;;;;;;5072938;28;20574;-70
2021/09/07 05:57:01;;;;;;;58.27;2.60;;;13.10;1.00;;;;;;5072629;28;20518;-70
2021/09/07 05:59:29;;;;;;;59.87;3.30;;;13.20;1.00;;;;;;5072783;28;20474;-70
2021/09/07 06:01:56;;;;;;;58.40;2.77;;;13.30;1.00;;;;;;5073053;28;20531;-70
2021/09/07 06:04:23;;;;;;;58.13;3.17;;;13.30;1.00;;;;;;5072613;28;21038;-70
2021/09/07 06:06:51;;;;;;;58.43;3.20;;;13.30;1.00;;;;;;5072696;28;20534;-70
2021/09/07 06:09:18;;;;;;;59.40;3.27;;;13.30;1.00;;;;;;5072350;28;20451;-70
2021/09/07 06:11:45;;;;;;;58.20;2.40;;;13.40;1.00;;;;;;5072923;28;20526;-70
2021/09/07 06:14:11;;;;;;;58.70;3.43;;;13.40;1.00;;;;;;5072618;28;20593;-68
2021/09/07 06:16:40;;;;;;;58.07;2.70;;;13.40;1.00;;;;;;5072458;28;20943;-68
2021/09/07 06:19:07;;;;;;;58.60;2.90;;;13.40;1.00;;;;;;5068572;28;20462;-67
2021/09/07 06:21:34;;;;;;;58.70;3.57;;;13.50;1.00;;;;;;5070593;28;20465;-66
2021/09/07 06:24:01;;;;;;;58.77;3.80;;;13.50;1.00;;;;;;5071883;28;20550;-67
2021/09/07 06:26:28;;;;;;;58.07;2.80;;;13.50;1.00;;;;;;5072452;28;20526;-67
2021/09/07 06:28:55;;;;;;;58.10;2.70;;;13.60;1.00;;;;;;5072312;28;20537;-67
2021/09/07 06:31:22;;;;;;;58.97;3.50;;;13.60;1.00;;;;;;5067558;28;20466;-67
2021/09/07 06:33:50;;;;;;;58.77;3.00;;;13.60;1.00;;;;;;5052074;28;20895;-67
2021/09/07 06:36:17;;;;;;;59.37;3.13;;;13.60;1.00;;;;;;5051963;28;20567;-67
2021/09/07 06:38:44;;;;;;;58.00;2.67;;;13.70;1.00;;;;;;5051908;28;21082;-67
2021/09/07 06:41:11;;;;;;;58.30;2.90;;;13.70;1.00;;;;;;5051790;28;20450;-67
2021/09/07 06:43:38;;;;;;;58.30;3.00;;;13.80;1.00;;;;;;5051844;28;20468;-67
2021/09/07 06:46:05;;;;;;;58.30;2.80;;;13.80;1.00;;;;;;5051931;28;20523;-67
2021/09/07 06:48:32;;;;;;;58.70;3.23;;;13.80;1.00;;;;;;5051869;28;20448;-67
2021/09/07 06:51:00;;;;;;;58.77;3.57;;;13.80;1.00;;;;;;5051536;28;20548;-67
2021/09/07 06:53:27;;;;;;;58.77;3.20;;;13.80;1.00;;;;;;5051718;28;20472;-67
2021/09/07 06:55:54;;;;;;;58.50;2.70;;;13.80;1.00;;;;;;5051703;28;20515;-67
2021/09/07 06:58:21;;;;;;;58.20;2.67;;;13.80;1.00;;;;;;5051715;28;20471;-67
2021/09/07 07:00:47;;;;;;;59.00;3.10;;;13.90;1.00;;;;;;5051593;28;20454;-67
2021/09/07 07:03:14;;;;;;;57.80;2.83;;;13.90;1.00;;;;;;5053341;28;20502;-67
2021/09/07 07:05:41;;;;;;;58.07;2.70;;;14.00;1.00;;;;;;5071515;28;20932;-67
2021/09/07 07:08:09;;;;;;;59.07;3.40;;;14.20;1.00;;;;;;5071583;28;20486;-67
2021/09/07 07:10:36;;;;;;;58.50;2.70;;;14.30;1.00;;;;;;5071531;28;20876;-67
2021/09/07 07:13:04;;;;;;;59.40;4.63;;;14.40;1.00;;;;;;5070991;28;20459;-67
2021/09/07 07:15:31;;;;;;;57.97;2.60;;;14.40;1.00;;;;;;5071552;28;20479;-67
2021/09/07 07:17:58;;;;;;;59.20;3.00;;;14.50;1.00;;;;;;5071446;28;20538;-67
2021/09/07 07:20:25;;;;;;;58.07;2.80;;;14.60;1.00;;;;;;5071199;28;20537;-67
2021/09/07 07:22:51;;;;;;;58.20;2.80;;;14.70;1.00;;;;;;5071769;28;20473;-68
2021/09/07 07:25:20;;;;;;;58.47;3.40;;;14.70;1.00;;;;;;5069285;28;20542;-68
2021/09/07 07:27:48;;;;;;;58.27;2.57;;;14.90;1.00;;;;;;5071608;28;20452;-68
2021/09/07 07:30:15;;;;;;;58.37;3.00;;;15.10;1.00;;;;;;5071272;28;20821;-68
2021/09/07 07:32:42;;;;;;;58.80;3.90;;;15.30;1.00;;;;;;5071253;28;20558;-67
2021/09/07 07:35:09;;;;;;;60.40;4.50;;;15.50;1.00;;;;;;5071739;28;20855;-70
2021/09/07 07:37:36;;;;;;;58.27;3.10;;;15.60;1.00;;;;;;5071581;28;20535;-70
2021/09/07 07:40:06;;;;;;;58.30;3.83;;;15.80;1.00;;;;;;5071060;28;20455;-70
2021/09/07 07:42:34;;;;;;;60.80;4.07;;;16.00;1.00;;;;;;5072417;28;20571;-70
2021/09/07 07:45:01;;;;;;;58.40;3.10;;;16.10;1.00;;;;;;5075354;28;20444;-69
2021/09/07 07:47:28;;;;;;;58.40;2.87;;;16.20;1.00;;;;;;5075281;28;20547;-69
2021/09/07 07:49:55;;;;;;;58.40;3.10;;;16.30;1.00;;;;;;5075203;28;20497;-69
2021/09/07 07:52:22;;;;;;;58.37;3.27;;;16.30;1.00;;;;;;5075435;28;20474;-69
2021/09/07 07:54:50;;;;;;;58.33;2.87;;;16.40;1.00;;;;;;5075382;28;20547;-69
2021/09/07 07:57:17;;;;;;;58.60;3.47;;;16.50;1.00;;;;;;5057680;28;20461;-69
2021/09/07 07:59:45;;;;;;;58.27;2.80;;;16.60;1.00;;;;;;5054138;28;20883;-69
2021/09/07 08:02:12;;;;;;;58.90;3.43;;;16.80;1.00;;;;;;5055250;28;20457;-70
2021/09/07 08:04:39;;;;;;;59.00;3.37;;;16.90;1.00;;;;;;5055369;28;20450;-70
2021/09/07 08:07:06;;;;;;;58.27;2.60;;;17.10;1.00;;;;;;5055081;28;20455;-70
2021/09/07 08:09:33;;;;;;;58.13;3.23;;;17.20;1.00;;;;;;5054783;28;20445;-70
2021/09/07 08:12:00;;;;;;;59.30;3.57;;;17.30;1.00;;;;;;5054887;28;20533;-70
2021/09/07 08:14:27;;;;;;;58.90;3.23;;;17.50;1.00;;;;;;5054845;28;20470;-70
2021/09/07 08:16:56;;;;;;;59.83;4.43;;;17.60;1.00;;;;;;5054696;28;20491;-70
2021/09/07 08:19:22;;;;;;;58.67;3.70;;;17.80;1.00;;;;;;5054445;28;20453;-70
2021/09/07 08:21:49;;;;;;;59.07;3.30;;;18.00;1.00;;;;;;5054836;28;20458;-70
2021/09/07 08:24:16;;;;;;;58.57;3.67;;;18.10;1.00;;;;;;5054674;28;20475;-70
2021/09/07 08:26:43;;;;;;;61.80;3.83;;;18.20;1.00;;;;;;5054143;28;20534;-70
2021/09/07 08:29:10;;;;;;;58.90;3.27;;;18.30;1.00;;;;;;5070266;28;20546;-70
2021/09/07 08:31:37;;;;;;;58.70;3.57;;;18.50;1.00;;;;;;5074714;28;20486;-70
2021/09/07 08:34:05;;;;;;;58.70;3.30;;;18.60;1.00;;;;;;5074529;28;20522;-70
2021/09/07 08:36:32;;;;;;;58.87;3.27;;;18.70;1.00;;;;;;5074329;28;20526;-70
2021/09/07 08:38:58;;;;;;;57.83;2.97;;;18.80;1.00;;;;;;5074311;28;20443;-70
2021/09/07 08:41:25;;;;;;;58.47;2.73;;;19.00;1.00;;;;;;5074110;28;20458;-70
2021/09/07 08:43:53;;;;;;;58.23;3.70;;;19.10;1.00;;;;;;5074737;28;20499;-69
2021/09/07 08:46:20;;;;;;;58.50;2.67;;;19.30;1.00;;;;;;5074544;28;20443;-69
2021/09/07 08:48:48;;;;;;;58.37;3.00;;;19.50;1.00;;;;;;5074172;28;20482;-69
2021/09/07 08:51:18;;;;;;;58.40;2.60;;;19.60;1.00;;;;;;5074116;28;20486;-70
2021/09/07 08:53:46;;;;;;;58.17;2.93;;;19.60;1.00;;;;;;5073278;28;20992;-70
2021/09/07 08:56:13;;;;;;;57.83;2.60;;;19.80;1.00;;;;;;5073574;28;21015;-70
2021/09/07 08:58:40;;;;;;;59.90;4.50;;;20.00;1.00;;;;;;5072569;28;20535;-70
2021/09/07 09:01:12;;;;;;;58.60;2.77;;;20.20;1.00;;;;;;5074055;28;20444;-70
2021/09/07 09:03:42;;;;;;;58.20;2.80;;;20.30;1.00;;;;;;5073869;28;20570;-70
2021/09/07 09:06:09;;;;;;;58.87;3.30;;;20.60;1.00;;;;;;5073941;28;20447;-70
2021/09/07 09:08:38;;;;;;;57.83;2.57;;;20.90;1.00;;;;;;5073689;28;20454;-70
2021/09/07 09:11:07;;;;;;;58.17;3.33;;;21.20;1.00;;;;;;5073701;28;20449;-70
2021/09/07 09:13:42;;;;;;;58.30;3.10;;;21.50;1.00;;;;;;5073965;28;20561;-70
2021/09/07 09:16:09;;;;;;;59.00;3.20;;;21.90;1.00;;;;;;5073678;28;20495;-71
2021/09/07 09:18:38;;;;;;;58.43;3.00;;;22.10;1.00;;;;;;5073907;28;20447;-70
2021/09/07 09:21:24;;;;;;;58.67;2.80;;;22.40;1.00;;;;;;5073055;28;20944;-70
2021/09/07 09:24:18;;;;;;;59.80;3.67;;;22.60;1.00;;;;;;5073719;28;20467;-70
2021/09/07 09:26:53;;;;;;;58.70;3.20;;;22.80;1.00;;;;;;5073826;28;20446;-70
2021/09/07 09:29:21;;;;;;;58.40;2.83;;;23.00;1.00;;;;;;5073073;28;21022;-70
2021/09/07 09:31:57;;;;;;;58.50;2.83;;;23.10;1.00;;;;;;5057266;28;20466;-70
2021/09/07 09:34:25;;;;;;;59.50;3.53;;;23.30;1.00;;;;;;5053346;28;21000;-70
2021/09/07 09:37:04;;;;;;;59.13;3.30;;;23.50;1.00;;;;;;5053320;28;21011;-70
2021/09/07 09:39:44;;;;;;;58.20;2.90;;;23.80;1.00;;;;;;5053085;28;20859;-70
2021/09/07 09:42:16;;;;;;;59.50;3.07;;;24.00;1.00;;;;;;5053125;28;20444;-70
2021/09/07 09:44:43;;;;;;;58.30;3.37;;;24.20;1.00;;;;;;5053345;28;20539;-70
2021/09/07 09:47:10;;;;;;;58.07;2.53;;;24.50;1.00;;;;;;5052687;28;20453;-70
2021/09/07 09:49:37;;;;;;;58.20;2.70;;;24.60;1.00;;;;;;5052839;28;20538;-70
2021/09/07 09:52:06;;;;;;;58.47;2.97;;;24.80;1.00;;;;;;5053067;28;20444;-70
2021/09/07 09:54:34;;;;;;;58.60;3.13;;;25.20;1.00;;;;;;5053149;28;21003;-70
2021/09/07 09:57:05;;;;;;;59.00;3.13;;;25.60;1.00;;;;;;5052551;28;20518;-70
2021/09/07 09:59:32;;;;;;;59.20;2.80;;;26.20;1.00;;;;;;5052524;28;20473;-70
2021/09/07 10:02:01;;;;;;;58.10;2.70;;;27.20;1.00;;;;;;5054217;28;20543;-68
2021/09/07 10:04:31;;;;;;;60.70;3.40;;;28.20;1.00;;;;;;5072407;28;20571;-68
2021/09/07 10:06:58;;;;;;;58.10;2.80;;;29.00;1.00;;;;;;5072266;28;20487;-68
2021/09/07 10:09:27;;;;;;;58.77;3.20;;;29.80;1.00;;;;;;5072561;28;20454;-68
2021/09/07 10:12:02;;;;;;;57.97;2.60;;;30.50;1.00;;;;;;5072731;28;20483;-68
2021/09/07 10:14:33;;;;;;;58.50;3.80;;;31.00;1.00;;;;;;5072702;28;20544;-68
2021/09/07 10:17:33;;;;;;;58.27;2.80;;;31.70;1.00;;;;;;5072356;28;20528;-68
2021/09/07 10:23:05;;;;;;;57.80;2.33;;;32.80;1.00;;;;;;5069737;28;20454;-69
2021/09/07 10:25:53;;;;;;;58.83;2.60;;;33.40;1.00;;;;;;5072353;28;20986;-69
2021/09/07 10:28:31;;;;;;;57.37;2.47;;;33.90;1.00;;;;;;5072446;28;20446;-69
2021/09/07 10:31:01;;;;;;;58.40;3.03;;;34.00;1.00;;;;;;5072054;28;20549;-70
2021/09/07 10:33:30;;;;;;;59.83;3.63;;;34.20;1.00;;;;;;5072263;28;20528;-70
2021/09/07 10:36:12;;;;;;;58.10;3.33;;;34.50;1.00;;;;;;5051337;28;20491;-70
2021/09/07 10:38:40;;;;;;;57.70;2.97;;;34.70;1.00;;;;;;5052206;28;20464;-70
2021/09/07 10:41:08;;;;;;;57.43;2.57;;;35.00;1.00;;;;;;5051729;28;20451;-70
2021/09/07 10:44:02;;;;;;;57.47;2.43;;;35.30;1.00;;;;;;5051870;28;20486;-70
2021/09/07 10:46:48;;;;;;;57.90;2.80;;;35.60;1.00;;;;;;5016166;28;20456;-70
2021/09/07 10:49:17;;;;;;;57.40;2.80;;;36.00;1.00;;;;;;5051694;28;20444;-70
2021/09/07 10:52:18;;;;;;;57.70;2.53;;;36.10;1.00;;;;;;5051918;28;20539;-70
2021/09/07 10:54:56;;;;;;;58.10;2.60;;;36.00;1.00;;;;;;5019328;28;20883;-70
2021/09/07 10:57:46;;;;;;;57.87;2.83;;;35.70;1.00;;;;;;5051907;28;20491;-69
2021/09/07 11:00:29;;;;;;;58.07;3.07;;;35.50;1.00;;;;;;5051345;28;21020;-67
2021/09/07 11:02:58;;;;;;;58.63;3.50;;;35.50;1.00;;;;;;5069130;28;20927;-68
2021/09/07 11:05:52;;;;;;;58.10;2.80;;;35.60;1.00;;;;;;5071621;28;20487;-67
2021/09/07 11:08:43;;;;;;;58.80;3.00;;;35.80;1.00;;;;;;5035827;28;20463;-67
2021/09/07 11:11:25;;;;;;;57.80;2.60;;;36.20;1.00;;;;;;5071395;28;20505;-67
2021/09/07 11:13:54;;;;;;;57.07;2.30;;;36.30;1.00;;;;;;5071800;28;20471;-66
2021/09/07 11:16:21;;;;;;;57.30;2.70;;;36.40;1.00;;;;;;5071537;28;20518;-66
2021/09/07 11:18:49;;;;;;;57.50;2.67;;;36.40;1.00;;;;;;5071430;28;20440;-66
2021/09/07 11:21:16;;;;;;;57.40;2.40;;;36.20;1.00;;;;;;5071159;28;20538;-67
2021/09/07 11:23:43;;;;;;;57.40;2.63;;;35.90;1.00;;;;;;5071611;28;20558;-67
2021/09/07 11:26:13;;;;;;;58.27;2.77;;;35.90;1.00;;;;;;5071523;28;20763;-66
2021/09/07 11:28:41;;;;;;;57.70;2.53;;;35.90;1.00;;;;;;5071469;28;20443;-67
2021/09/07 11:31:11;;;;;;;59.37;5.10;;;36.00;1.00;;;;;;5071243;28;21014;-67
2021/09/07 11:33:39;;;;;;;57.40;2.57;;;36.20;1.00;;;;;;5069802;28;20467;-67
2021/09/07 11:36:09;;;;;;;57.80;2.40;;;36.30;1.00;;;;;;5071275;28;20479;-67
2021/09/07 11:38:38;;;;;;;57.30;2.50;;;36.30;1.00;;;;;;5071351;28;20451;-67
2021/09/07 11:41:07;;;;;;;57.37;2.50;;;36.00;1.00;;;;;;5071324;28;20487;-67
2021/09/07 11:43:37;;;;;;;57.37;2.70;;;36.00;1.00;;;;;;5071420;28;20818;-67
2021/09/07 11:46:06;;;;;;;58.00;2.93;;;36.30;1.00;;;;;;5071659;28;20486;-67
2021/09/07 11:48:33;;;;;;;58.17;2.70;;;36.50;1.00;;;;;;5071336;28;20860;-67
2021/09/07 11:51:00;;;;;;;58.07;3.23;;;36.50;1.00;;;;;;5070843;28;20959;-67
2021/09/07 11:53:28;;;;;;;57.60;2.50;;;36.70;1.00;;;;;;5071374;28;20471;-67
2021/09/07 11:55:56;;;;;;;57.60;3.20;;;36.90;1.00;;;;;;5071334;28;20447;-67
2021/09/07 11:58:26;;;;;;;57.97;2.43;;;37.10;1.00;;;;;;5071194;28;20451;-67
2021/09/07 12:01:12;;;;;;;58.67;3.10;;;37.10;1.00;;;;;;5071078;28;20534;-67
2021/09/07 12:03:46;;;;;;;58.07;2.80;;;36.80;1.00;;;;;;5070917;28;20565;-67
2021/09/07 12:06:14;;;;;;;56.90;2.23;;;36.90;1.00;;;;;;5056535;28;20448;-67
2021/09/07 12:08:45;;;;;;;58.43;3.30;;;37.10;1.00;;;;;;5051186;28;20806;-67
2021/09/07 12:11:14;;;;;;;57.83;2.60;;;37.30;1.00;;;;;;5051044;28;20448;-67
2021/09/07 12:13:41;;;;;;;57.50;2.70;;;37.30;1.00;;;;;;5059607;28;20525;-67
2021/09/07 12:16:08;;;;;;;57.47;3.00;;;37.40;1.00;;;;;;5070882;28;21098;-67
2021/09/07 12:18:38;;;;;;;57.37;2.70;;;37.50;1.00;;;;;;5071311;28;20475;-67
2021/09/07 12:21:17;;;;;;;57.77;2.70;;;37.00;1.00;;;;;;5070667;28;20449;-67
2021/09/07 12:23:47;;;;;;;59.40;3.80;;;36.10;1.00;;;;;;5071327;28;20562;-67
2021/09/07 12:26:15;;;;;;;57.20;2.30;;;35.20;1.00;;;;;;5070785;28;20452;-67
2021/09/07 12:28:43;;;;;;;57.67;2.27;;;35.20;1.00;;;;;;5070878;28;20533;-66
2021/09/07 12:31:16;;;;;;;57.80;2.53;;;35.40;1.00;;;;;;5074362;28;20822;-66
2021/09/07 12:33:47;;;;;;;57.60;2.37;;;35.40;1.00;;;;;;5074606;28;20502;-67
2021/09/07 12:36:16;;;;;;;58.73;2.30;;;35.40;1.00;;;;;;5074082;28;20451;-67
2021/09/07 12:38:45;;;;;;;57.80;2.47;;;35.30;1.00;;;;;;5074026;28;20439;-67
2021/09/07 12:41:13;;;;;;;57.70;2.57;;;35.30;1.00;;;;;;5074164;28;20454;-67
2021/09/07 12:43:42;;;;;;;58.37;2.43;;;35.40;1.00;;;;;;5074835;28;20465;-67
2021/09/07 12:46:10;;;;;;;58.87;3.20;;;35.40;1.00;;;;;;5074309;28;20462;-67
2021/09/07 12:48:38;;;;;;;57.43;2.40;;;35.30;1.00;;;;;;5074492;28;20482;-67
2021/09/07 12:51:06;;;;;;;57.20;2.60;;;35.10;1.00;;;;;;5074350;28;20931;-67
2021/09/07 12:53:39;;;;;;;57.47;2.30;;;35.00;1.00;;;;;;5074031;28;20499;-67
2021/09/07 12:56:10;;;;;;;57.50;2.23;;;35.00;1.00;;;;;;5074397;28;20451;-67
2021/09/07 12:58:39;;;;;;;58.83;2.53;;;35.10;1.00;;;;;;5074355;28;20447;-67